Time;durP1;ratioP1;P1;durP2;ratioP2;P2;SDS_P1;SDS_P2;PMS_P1;PMS_P2;Temp;Humidity;BMP_temperature;BMP_pressure;BME280_temperature;BME280_humidity;BME280_pressure;Samples;Min_cycle;Max_cycle;Signal;HPM_P1;HPM_P2
2022/04/18 00:00:07;;;;;;;3.88;2.40;;;;;;;;;;4988214;28;20132;-88
2022/04/18 00:02:34;;;;;;;4.72;2.20;;;;;;;;;;4994526;28;20779;-88
2022/04/18 00:05:01;;;;;;;3.83;2.30;;;;;;;;;;4998083;28;20046;-87
2022/04/18 00:07:29;;;;;;;4.55;2.17;;;;;;;;;;4999306;28;20062;-88
2022/04/18 00:09:56;;;;;;;4.30;2.13;;;;;;;;;;4997675;28;20498;-88
2022/04/18 00:12:23;;;;;;;4.90;2.22;;;;;;;;;;4996195;28;20498;-87
2022/04/18 00:14:50;;;;;;;3.83;2.10;;;;;;;;;;4996017;28;20039;-87
2022/04/18 00:17:17;;;;;;;3.83;2.45;;;;;;;;;;4993717;28;20104;-87
2022/04/18 00:19:44;;;;;;;5.00;2.90;;;;;;;;;;5002537;28;20104;-88
2022/04/18 00:22:11;;;;;;;6.80;2.15;;;;;;;;;;4998258;28;20050;-88
2022/04/18 00:24:39;;;;;;;3.53;2.10;;;;;;;;;;4989160;28;20049;-87
2022/04/18 00:27:06;;;;;;;3.80;2.30;;;;;;;;;;4986816;28;20050;-87
2022/04/18 00:29:33;;;;;;;3.90;2.40;;;;;;;;;;4997637;28;20137;-87
2022/04/18 00:32:00;;;;;;;5.28;2.47;;;;;;;;;;4996805;28;20101;-87
2022/04/18 00:34:27;;;;;;;6.28;2.42;;;;;;;;;;4995698;28;20058;-88
2022/04/18 00:36:54;;;;;;;4.13;2.22;;;;;;;;;;4996755;28;20149;-88
2022/04/18 00:39:22;;;;;;;6.18;2.38;;;;;;;;;;4996726;28;20127;-87
2022/04/18 00:41:50;;;;;;;4.00;2.30;;;;;;;;;;4997111;28;20141;-87
2022/04/18 00:44:17;;;;;;;8.65;3.00;;;;;;;;;;4977559;28;20136;-87
2022/04/18 00:46:44;;;;;;;5.95;2.50;;;;;;;;;;5019017;28;20132;-87
2022/04/18 00:49:11;;;;;;;4.57;2.60;;;;;;;;;;5042179;28;20381;-87
2022/04/18 00:51:37;;;;;;;4.20;2.78;;;;;;;;;;5044913;28;20536;-88
2022/04/18 00:54:04;;;;;;;4.50;2.70;;;;;;;;;;5057354;28;20055;-87
2022/04/18 00:56:34;;;;;;;5.07;2.70;;;;;;;;;;5042702;28;20041;-87
2022/04/18 00:59:03;;;;;;;5.00;2.42;;;;;;;;;;5043669;28;20056;-87
2022/04/18 01:01:30;;;;;;;4.43;2.38;;;;;;;;;;5043268;28;20040;-87
2022/04/18 01:03:57;;;;;;;4.53;2.60;;;;;;;;;;5033258;28;20076;-87
2022/04/18 01:06:23;;;;;;;4.45;2.22;;;;;;;;;;5045584;28;20053;-87
2022/04/18 01:08:50;;;;;;;4.18;2.30;;;;;;;;;;5049477;28;20045;-87
2022/04/18 01:11:17;;;;;;;4.57;2.70;;;;;;;;;;5049407;28;20037;-87
2022/04/18 01:13:45;;;;;;;5.38;2.55;;;;;;;;;;5047360;28;20122;-87
2022/04/18 01:16:13;;;;;;;4.13;2.53;;;;;;;;;;5044950;28;20045;-87
2022/04/18 01:18:41;;;;;;;4.22;2.50;;;;;;;;;;5052580;28;20575;-87
2022/04/18 01:21:09;;;;;;;4.57;2.60;;;;;;;;;;5048024;28;20099;-87
2022/04/18 01:23:36;;;;;;;4.43;2.40;;;;;;;;;;5055564;28;20041;-87
2022/04/18 01:28:59;;;;;;;4.60;2.28;;;;;;;;;;5053023;28;20051;-88
2022/04/18 01:31:26;;;;;;;6.60;3.25;;;;;;;;;;5051323;28;20056;-87
2022/04/18 01:33:53;;;;;;;5.97;2.60;;;;;;;;;;5042667;28;20661;-87
2022/04/18 01:36:30;;;;;;;4.18;2.45;;;;;;;;;;5028196;28;20056;-88
2022/04/18 01:38:56;;;;;;;3.97;2.25;;;;;;;;;;5044795;28;20460;-87
2022/04/18 01:41:24;;;;;;;4.70;2.92;;;;;;;;;;5046327;28;20044;-87
2022/04/18 01:43:51;;;;;;;4.70;2.70;;;;;;;;;;5047477;28;20114;-87
2022/04/18 01:46:25;;;;;;;6.32;3.10;;;;;;;;;;5014612;28;20120;-87
2022/04/18 01:48:59;;;;;;;5.72;2.80;;;;;;;;;;4994297;28;20556;-87
2022/04/18 01:51:26;;;;;;;4.07;2.47;;;;;;;;;;4994225;28;20931;-87
2022/04/18 01:53:54;;;;;;;4.55;2.97;;;;;;;;;;4995206;28;20105;-87
2022/04/18 01:56:21;;;;;;;3.88;2.65;;;;;;;;;;4995768;28;20751;-87
2022/04/18 01:58:48;;;;;;;7.65;2.45;;;;;;;;;;4991207;28;20104;-87
2022/04/18 02:01:16;;;;;;;5.20;3.00;;;;;;;;;;4998132;28;20044;-87
2022/04/18 02:03:43;;;;;;;4.57;2.38;;;;;;;;;;4994331;28;20065;-86
2022/04/18 02:06:10;;;;;;;8.65;3.35;;;;;;;;;;4989882;28;20053;-86
2022/04/18 02:08:37;;;;;;;5.60;3.00;;;;;;;;;;4998311;28;20090;-87
2022/04/18 02:11:06;;;;;;;3.80;2.50;;;;;;;;;;5000173;28;20046;-87
2022/04/18 02:13:33;;;;;;;6.70;2.85;;;;;;;;;;5000269;28;20127;-87
2022/04/18 02:16:00;;;;;;;5.57;2.90;;;;;;;;;;4993606;28;20074;-87
2022/04/18 02:18:27;;;;;;;4.72;2.95;;;;;;;;;;5001456;28;20499;-87
2022/04/18 02:20:54;;;;;;;5.95;2.90;;;;;;;;;;4994587;28;20076;-87
2022/04/18 02:23:21;;;;;;;7.53;3.40;;;;;;;;;;4999211;28;20477;-87
2022/04/18 02:25:47;;;;;;;4.43;2.53;;;;;;;;;;4999661;28;20054;-87
2022/04/18 02:28:16;;;;;;;9.48;4.78;;;;;;;;;;5003138;28;20046;-87
2022/04/18 02:30:43;;;;;;;8.60;4.25;;;;;;;;;;5001208;28;20171;-87
2022/04/18 02:33:09;;;;;;;4.40;2.72;;;;;;;;;;4999281;28;20046;-87
2022/04/18 02:35:36;;;;;;;7.75;3.55;;;;;;;;;;5004565;28;20050;-87
2022/04/18 02:38:03;;;;;;;6.78;4.00;;;;;;;;;;4997109;28;20112;-87
2022/04/18 02:40:30;;;;;;;7.40;3.50;;;;;;;;;;4997398;28;20057;-86
2022/04/18 02:42:57;;;;;;;5.43;3.55;;;;;;;;;;4997458;28;20047;-86
2022/04/18 02:45:27;;;;;;;6.40;3.80;;;;;;;;;;4998463;28;20083;-87
2022/04/18 02:47:54;;;;;;;4.68;2.80;;;;;;;;;;4998337;28;20050;-87
2022/04/18 02:50:20;;;;;;;4.05;2.45;;;;;;;;;;5001963;28;20054;-86
2022/04/18 02:52:47;;;;;;;6.05;2.90;;;;;;;;;;4998043;28;20057;-87
2022/04/18 02:55:14;;;;;;;5.53;2.70;;;;;;;;;;5000780;28;20038;-86
2022/04/18 02:57:41;;;;;;;5.57;3.00;;;;;;;;;;5003116;28;20065;-86
2022/04/18 03:00:09;;;;;;;5.45;3.40;;;;;;;;;;5001020;28;20049;-86
2022/04/18 03:02:38;;;;;;;4.88;2.70;;;;;;;;;;5002317;28;20097;-87
2022/04/18 03:05:06;;;;;;;4.05;2.83;;;;;;;;;;5004157;28;20080;-86
2022/04/18 03:07:33;;;;;;;5.80;3.20;;;;;;;;;;5003844;28;20570;-87
2022/04/18 03:10:00;;;;;;;5.05;2.92;;;;;;;;;;5003296;28;20132;-86
2022/04/18 03:12:27;;;;;;;5.45;2.60;;;;;;;;;;5001052;28;20116;-86
2022/04/18 03:14:54;;;;;;;6.38;3.33;;;;;;;;;;5002506;28;20042;-86
2022/04/18 03:17:20;;;;;;;4.03;2.88;;;;;;;;;;5003375;28;20100;-86
2022/04/18 03:19:48;;;;;;;6.40;3.00;;;;;;;;;;5003809;28;20096;-86
2022/04/18 03:22:15;;;;;;;4.93;3.22;;;;;;;;;;5001638;28;20050;-86
2022/04/18 03:24:41;;;;;;;7.82;3.13;;;;;;;;;;5002807;28;20077;-86
2022/04/18 03:27:08;;;;;;;7.72;3.55;;;;;;;;;;4999920;28;20054;-86
2022/04/18 03:29:35;;;;;;;5.40;3.03;;;;;;;;;;5005211;28;20121;-86
2022/04/18 03:32:02;;;;;;;5.63;3.13;;;;;;;;;;5001695;28;20743;-86
2022/04/18 03:34:29;;;;;;;4.32;2.90;;;;;;;;;;5001636;28;20131;-86
2022/04/18 03:39:53;;;;;;;7.03;3.60;;;;;;;;;;5005290;28;20482;-86
2022/04/18 03:42:29;;;;;;;6.53;2.80;;;;;;;;;;5003995;28;20081;-86
2022/04/18 03:44:57;;;;;;;10.30;3.67;;;;;;;;;;5002122;28;20050;-86
2022/04/18 03:47:24;;;;;;;6.95;2.80;;;;;;;;;;5007537;28;20640;-86
2022/04/18 03:49:51;;;;;;;5.45;3.17;;;;;;;;;;4999072;28;20046;-86
2022/04/18 03:52:19;;;;;;;5.82;2.83;;;;;;;;;;5009069;28;20103;-86
2022/04/18 03:54:46;;;;;;;4.90;2.88;;;;;;;;;;5006140;28;20069;-86
2022/04/18 03:57:13;;;;;;;5.65;3.10;;;;;;;;;;5005629;28;20050;-85
2022/04/18 03:59:39;;;;;;;6.70;3.20;;;;;;;;;;5005662;28;20105;-85
2022/04/18 04:02:06;;;;;;;5.05;2.72;;;;;;;;;;5000228;28;20411;-86
2022/04/18 04:04:33;;;;;;;5.07;3.05;;;;;;;;;;4997850;28;20084;-86
2022/04/18 04:07:00;;;;;;;5.93;3.22;;;;;;;;;;4999971;28;20050;-86
2022/04/18 04:09:28;;;;;;;7.78;3.35;;;;;;;;;;5001942;28;20086;-86
2022/04/18 04:11:54;;;;;;;9.70;4.60;;;;;;;;;;4999519;28;20522;-86
2022/04/18 04:14:21;;;;;;;15.10;5.35;;;;;;;;;;5003819;28;20175;-86
2022/04/18 04:16:47;;;;;;;9.75;4.53;;;;;;;;;;4998669;28;20104;-86
2022/04/18 04:19:14;;;;;;;8.10;4.25;;;;;;;;;;4996235;28;20413;-86
2022/04/18 04:21:41;;;;;;;7.30;3.75;;;;;;;;;;5007550;28;20057;-86
2022/04/18 04:24:07;;;;;;;8.48;3.97;;;;;;;;;;5007786;28;20042;-86
2022/04/18 04:26:35;;;;;;;7.65;4.03;;;;;;;;;;4998615;28;20050;-86
2022/04/18 04:29:02;;;;;;;6.63;3.83;;;;;;;;;;4997799;28;20108;-86
2022/04/18 04:31:28;;;;;;;8.48;4.28;;;;;;;;;;4999522;28;20530;-86
2022/04/18 04:33:55;;;;;;;7.35;4.30;;;;;;;;;;5004903;28;20050;-86
2022/04/18 04:36:22;;;;;;;8.43;3.72;;;;;;;;;;5003142;28;20076;-86
2022/04/18 04:38:48;;;;;;;6.72;3.70;;;;;;;;;;4998404;28;20042;-86
2022/04/18 04:41:16;;;;;;;7.85;3.42;;;;;;;;;;4998904;28;20053;-86
2022/04/18 04:43:44;;;;;;;6.13;3.03;;;;;;;;;;5008113;28;20053;-86
2022/04/18 04:46:10;;;;;;;5.13;3.55;;;;;;;;;;5010340;28;20126;-86
2022/04/18 04:48:37;;;;;;;7.13;3.47;;;;;;;;;;5019093;28;20144;-87
2022/04/18 04:51:04;;;;;;;8.50;3.63;;;;;;;;;;5014287;28;20511;-87
2022/04/18 04:53:31;;;;;;;7.57;4.10;;;;;;;;;;5018193;28;20132;-86
2022/04/18 04:55:57;;;;;;;9.35;4.65;;;;;;;;;;5016792;28;20042;-86
2022/04/18 04:58:27;;;;;;;7.97;4.47;;;;;;;;;;5018573;28;20119;-87
2022/04/18 05:00:55;;;;;;;7.72;4.18;;;;;;;;;;5023406;28;20099;-87
2022/04/18 05:03:22;;;;;;;6.68;3.28;;;;;;;;;;5019564;28;20133;-87
2022/04/18 05:05:49;;;;;;;10.25;3.42;;;;;;;;;;5019038;28;20073;-87
2022/04/18 05:08:15;;;;;;;6.03;3.53;;;;;;;;;;5021797;28;20092;-86
2022/04/18 05:10:42;;;;;;;6.28;3.17;;;;;;;;;;5018032;28;20049;-86
2022/04/18 05:13:08;;;;;;;6.47;3.60;;;;;;;;;;5020484;28;20116;-86
2022/04/18 05:15:35;;;;;;;6.07;3.33;;;;;;;;;;5022877;28;20088;-86
2022/04/18 05:18:03;;;;;;;5.55;2.95;;;;;;;;;;5025243;28;20454;-86
2022/04/18 05:20:31;;;;;;;6.85;3.67;;;;;;;;;;5024739;28;20147;-86
2022/04/18 05:22:58;;;;;;;8.32;3.72;;;;;;;;;;5016221;28;20060;-86
2022/04/18 05:25:25;;;;;;;7.40;4.20;;;;;;;;;;5016138;28;20050;-86
2022/04/18 05:27:51;;;;;;;7.45;3.30;;;;;;;;;;5019704;28;20049;-87
2022/04/18 05:30:18;;;;;;;7.60;3.58;;;;;;;;;;5018434;28;20103;-87
2022/04/18 05:32:45;;;;;;;5.97;3.78;;;;;;;;;;5018894;28;20045;-87
2022/04/18 05:35:13;;;;;;;5.03;3.58;;;;;;;;;;5012011;28;20054;-87
2022/04/18 05:37:40;;;;;;;7.40;4.25;;;;;;;;;;5017582;28;20050;-87
2022/04/18 05:40:07;;;;;;;7.35;4.20;;;;;;;;;;5012970;28;20062;-87
2022/04/18 05:42:34;;;;;;;11.38;4.45;;;;;;;;;;5020781;28;20046;-87
2022/04/18 05:45:01;;;;;;;6.70;3.88;;;;;;;;;;5025855;28;20050;-87
2022/04/18 05:47:27;;;;;;;7.93;3.88;;;;;;;;;;5006931;28;20104;-87
2022/04/18 05:49:54;;;;;;;10.70;4.47;;;;;;;;;;5003802;28;20108;-87
2022/04/18 05:52:22;;;;;;;8.25;3.97;;;;;;;;;;4997718;28;20537;-87
2022/04/18 05:54:48;;;;;;;7.57;4.45;;;;;;;;;;5002863;28;20069;-87
2022/04/18 05:57:15;;;;;;;7.10;4.30;;;;;;;;;;5005536;28;20483;-87
2022/04/18 05:59:41;;;;;;;7.80;4.63;;;;;;;;;;4994604;28;20175;-87
2022/04/18 06:02:08;;;;;;;8.55;4.63;;;;;;;;;;5002033;28;20054;-87
2022/04/18 06:04:35;;;;;;;6.80;4.68;;;;;;;;;;5005549;28;20042;-87
2022/04/18 06:07:01;;;;;;;7.13;5.03;;;;;;;;;;5000353;28;20590;-87
2022/04/18 06:09:29;;;;;;;8.48;5.13;;;;;;;;;;5001533;28;20104;-87
2022/04/18 06:11:56;;;;;;;5.53;3.83;;;;;;;;;;5000767;28;20762;-87
2022/04/18 06:14:22;;;;;;;8.30;5.28;;;;;;;;;;4994527;28;20046;-88
2022/04/18 06:16:49;;;;;;;8.45;4.25;;;;;;;;;;4997386;28;20073;-87
2022/04/18 06:19:15;;;;;;;5.88;3.75;;;;;;;;;;4996214;28;20540;-88
2022/04/18 06:21:42;;;;;;;7.85;4.47;;;;;;;;;;4990948;28;20054;-88
2022/04/18 06:24:08;;;;;;;7.60;4.60;;;;;;;;;;5000470;28;20077;-88
2022/04/18 06:26:37;;;;;;;8.73;5.47;;;;;;;;;;4998100;28;20096;-88
2022/04/18 06:29:04;;;;;;;7.82;4.20;;;;;;;;;;5001790;28;20054;-88
2022/04/18 06:31:30;;;;;;;8.68;4.03;;;;;;;;;;4997012;28;20073;-88
2022/04/18 06:33:57;;;;;;;6.32;4.70;;;;;;;;;;5000177;28;20081;-88
2022/04/18 06:36:23;;;;;;;8.27;4.43;;;;;;;;;;4997654;28;20123;-88
2022/04/18 06:38:50;;;;;;;5.78;4.38;;;;;;;;;;5001241;28;20516;-89
2022/04/18 06:41:16;;;;;;;8.60;4.57;;;;;;;;;;5002367;28;20474;-88
2022/04/18 06:43:44;;;;;;;7.88;3.80;;;;;;;;;;4998541;28;20462;-88
2022/04/18 06:46:11;;;;;;;6.63;4.38;;;;;;;;;;5002982;28;20053;-89
2022/04/18 06:48:37;;;;;;;6.88;5.68;;;;;;;;;;5007021;28;20588;-89
2022/04/18 06:51:04;;;;;;;6.75;3.58;;;;;;;;;;4995479;28;20065;-88
2022/04/18 06:53:31;;;;;;;6.82;4.05;;;;;;;;;;5005672;28;20820;-87
2022/04/18 06:58:43;;;;;;;5.97;3.40;;;;;;;;;;4998886;28;20172;-89
2022/04/18 07:01:10;;;;;;;8.73;4.15;;;;;;;;;;5005582;28;20097;-88
2022/04/18 07:03:36;;;;;;;6.35;3.30;;;;;;;;;;5001102;28;20077;-89
2022/04/18 07:06:03;;;;;;;6.57;3.45;;;;;;;;;;4992629;28;20080;-89
2022/04/18 07:08:30;;;;;;;7.75;4.47;;;;;;;;;;4994811;28;20077;-89
2022/04/18 07:10:56;;;;;;;8.02;3.70;;;;;;;;;;4996942;28;20120;-89
2022/04/18 07:13:23;;;;;;;7.20;3.22;;;;;;;;;;4999373;28;20049;-89
2022/04/18 07:15:51;;;;;;;6.75;3.33;;;;;;;;;;4997196;28;20078;-89
2022/04/18 07:18:17;;;;;;;5.88;3.00;;;;;;;;;;4997705;28;20054;-89
2022/04/18 07:20:44;;;;;;;5.82;3.22;;;;;;;;;;5004895;28;20100;-89
2022/04/18 07:23:11;;;;;;;6.60;4.70;;;;;;;;;;4995265;28;20046;-89
2022/04/18 07:25:37;;;;;;;5.57;3.67;;;;;;;;;;4997098;28;20077;-89
2022/04/18 07:28:04;;;;;;;4.82;3.17;;;;;;;;;;5001270;28;20050;-89
2022/04/18 07:30:31;;;;;;;5.10;3.10;;;;;;;;;;5000088;28;20103;-89
2022/04/18 07:32:59;;;;;;;5.00;2.80;;;;;;;;;;4994942;28;20078;-89
2022/04/18 07:35:26;;;;;;;5.15;3.28;;;;;;;;;;4995563;28;20050;-89
2022/04/18 07:40:37;;;;;;;5.53;2.72;;;;;;;;;;5000732;28;20054;-89
2022/04/18 07:43:04;;;;;;;5.55;2.55;;;;;;;;;;5005344;28;20050;-89
2022/04/18 07:45:30;;;;;;;5.53;2.85;;;;;;;;;;4996618;28;20994;-88
2022/04/18 07:47:58;;;;;;;4.60;2.92;;;;;;;;;;5018419;28;20045;-89
2022/04/18 07:51:31;;;;;;;4.47;2.55;;;;;;;;;;5022988;28;20110;-89
2022/04/18 07:53:12;;;;;;;7.35;2.97;;;;;;;;;;5020615;28;20100;-89
2022/04/18 07:55:38;;;;;;;6.00;3.88;;;;;;;;;;5019303;28;20058;-89
2022/04/18 07:58:05;;;;;;;4.55;2.95;;;;;;;;;;5024082;28;20686;-89
2022/04/18 08:00:31;;;;;;;4.20;2.72;;;;;;;;;;5020979;28;20127;-89
2022/04/18 08:02:59;;;;;;;5.22;2.67;;;;;;;;;;5021555;28;20552;-88
2022/04/18 08:05:26;;;;;;;4.43;3.00;;;;;;;;;;5016326;28;20582;-89
2022/04/18 08:07:53;;;;;;;7.63;3.13;;;;;;;;;;5019267;28;20091;-89
2022/04/18 08:10:19;;;;;;;4.25;2.70;;;;;;;;;;5017710;28;20053;-89
2022/04/18 08:12:46;;;;;;;4.53;2.70;;;;;;;;;;5024741;28;20053;-89
2022/04/18 08:15:12;;;;;;;5.32;2.75;;;;;;;;;;5015583;28;20120;-89
2022/04/18 08:17:39;;;;;;;7.13;2.58;;;;;;;;;;5020764;28;20465;-89
2022/04/18 08:20:08;;;;;;;5.13;2.63;;;;;;;;;;5019968;28;20088;-89
2022/04/18 08:22:35;;;;;;;3.92;2.28;;;;;;;;;;5021726;28;20673;-89
2022/04/18 08:25:01;;;;;;;4.60;2.70;;;;;;;;;;5018412;28;20433;-89
2022/04/18 08:27:28;;;;;;;4.07;2.45;;;;;;;;;;5023664;28;20114;-89
2022/04/18 08:29:54;;;;;;;5.10;2.55;;;;;;;;;;5018146;28;20132;-89
2022/04/18 08:32:21;;;;;;;3.75;2.13;;;;;;;;;;5019741;28;20053;-89
2022/04/18 08:34:48;;;;;;;6.18;2.75;;;;;;;;;;5021325;28;20079;-88
2022/04/18 08:37:16;;;;;;;7.35;2.80;;;;;;;;;;5022008;28;20118;-89
2022/04/18 08:39:43;;;;;;;4.40;2.47;;;;;;;;;;5020773;28;20073;-88
2022/04/18 08:42:10;;;;;;;3.17;1.88;;;;;;;;;;5021216;28;20453;-89
2022/04/18 08:44:37;;;;;;;5.25;2.78;;;;;;;;;;5011273;28;20065;-89
2022/04/18 08:47:04;;;;;;;4.05;2.17;;;;;;;;;;5014604;28;20049;-88
2022/04/18 08:55:01;;;;;;;5.28;2.20;;;;;;;;;;5025006;28;20610;-88
2022/04/18 08:57:27;;;;;;;4.00;2.20;;;;;;;;;;5025202;28;20038;-88
2022/04/18 08:59:57;;;;;;;4.60;2.42;;;;;;;;;;5024520;28;20123;-88
2022/04/18 09:02:27;;;;;;;5.28;2.20;;;;;;;;;;5019057;28;20045;-88
2022/04/18 09:04:54;;;;;;;4.00;2.13;;;;;;;;;;5017117;28;20487;-88
2022/04/18 09:07:23;;;;;;;3.60;2.40;;;;;;;;;;5024798;28;20046;-88
2022/04/18 09:09:55;;;;;;;3.22;1.90;;;;;;;;;;5025427;28;20045;-88
2022/04/18 09:12:23;;;;;;;5.00;2.28;;;;;;;;;;5025581;28;20058;-89
2022/04/18 09:14:50;;;;;;;4.18;2.65;;;;;;;;;;5031046;28;20590;-88
2022/04/18 09:17:28;;;;;;;4.43;2.08;;;;;;;;;;5024972;28;20049;-88
2022/04/18 09:20:04;;;;;;;3.55;2.33;;;;;;;;;;5020161;28;20065;-88
2022/04/18 09:22:40;;;;;;;3.58;1.85;;;;;;;;;;5016051;28;20049;-88
2022/04/18 09:25:13;;;;;;;6.43;2.40;;;;;;;;;;5022058;28;20465;-89
2022/04/18 09:27:40;;;;;;;4.75;2.10;;;;;;;;;;5017463;28;20556;-88
2022/04/18 09:30:07;;;;;;;3.50;1.80;;;;;;;;;;5018073;28;20185;-89
2022/04/18 09:32:34;;;;;;;4.07;2.00;;;;;;;;;;5015308;28;20049;-88
2022/04/18 09:35:02;;;;;;;4.10;2.05;;;;;;;;;;5017191;28;20069;-89
2022/04/18 09:37:30;;;;;;;3.55;2.00;;;;;;;;;;5016537;28;20049;-89
2022/04/18 09:39:58;;;;;;;3.78;2.22;;;;;;;;;;5018172;28;20042;-89
2022/04/18 09:42:26;;;;;;;3.35;1.80;;;;;;;;;;5023158;28;20139;-89
2022/04/18 09:44:53;;;;;;;3.47;1.90;;;;;;;;;;5026439;28;20044;-89
2022/04/18 09:47:22;;;;;;;5.35;1.95;;;;;;;;;;5004127;28;20054;-88
2022/04/18 09:49:49;;;;;;;5.57;2.00;;;;;;;;;;4999442;28;20074;-88
2022/04/18 09:52:18;;;;;;;3.97;1.83;;;;;;;;;;4993833;28;20050;-89
2022/04/18 09:54:46;;;;;;;3.72;1.98;;;;;;;;;;4997509;28;20446;-89
2022/04/18 09:57:14;;;;;;;3.00;1.80;;;;;;;;;;4996467;28;20069;-88
2022/04/18 09:59:40;;;;;;;3.20;1.98;;;;;;;;;;5002765;28;20212;-89
2022/04/18 10:02:14;;;;;;;4.53;2.10;;;;;;;;;;4999944;28;20114;-89
2022/04/18 10:04:41;;;;;;;3.38;1.77;;;;;;;;;;5002059;28;20519;-89
2022/04/18 10:07:08;;;;;;;5.80;2.25;;;;;;;;;;5003424;28;20050;-87
2022/04/18 10:09:35;;;;;;;3.83;1.92;;;;;;;;;;5006918;28;20054;-88
2022/04/18 10:12:05;;;;;;;4.88;1.98;;;;;;;;;;5006680;28;20465;-88
2022/04/18 10:14:33;;;;;;;4.05;2.10;;;;;;;;;;5006589;28;20058;-88
2022/04/18 10:17:05;;;;;;;4.53;2.05;;;;;;;;;;5007228;28;20042;-89
2022/04/18 10:19:43;;;;;;;4.80;1.92;;;;;;;;;;4997983;28;20058;-89
2022/04/18 10:22:25;;;;;;;6.35;2.03;;;;;;;;;;5007924;28;20046;-89
2022/04/18 10:25:07;;;;;;;2.95;1.70;;;;;;;;;;5000449;28;20054;-90
2022/04/18 10:27:55;;;;;;;5.50;1.73;;;;;;;;;;5009016;28;20100;-89
2022/04/18 10:30:24;;;;;;;3.40;1.73;;;;;;;;;;5004096;28;20104;-90
2022/04/18 10:32:51;;;;;;;4.20;1.75;;;;;;;;;;5001616;28;20112;-89
2022/04/18 10:35:18;;;;;;;5.82;2.25;;;;;;;;;;5006601;28;20108;-90
2022/04/18 10:37:53;;;;;;;5.50;2.35;;;;;;;;;;5001856;28;20050;-90
2022/04/18 10:40:20;;;;;;;4.65;2.15;;;;;;;;;;5003729;28;20497;-90
2022/04/18 10:42:46;;;;;;;9.65;2.45;;;;;;;;;;5001693;28;20081;-87
2022/04/18 10:45:14;;;;;;;4.57;2.00;;;;;;;;;;5003889;28;20049;-88
2022/04/18 10:48:10;;;;;;;2.97;1.75;;;;;;;;;;5002561;28;20051;-88
2022/04/18 10:50:43;;;;;;;3.22;1.83;;;;;;;;;;5004694;28;20046;-89
2022/04/18 10:53:29;;;;;;;3.15;1.67;;;;;;;;;;5004782;28;20550;-88
2022/04/18 10:56:13;;;;;;;3.95;1.70;;;;;;;;;;4999912;28;20125;-88
2022/04/18 10:58:43;;;;;;;3.65;1.70;;;;;;;;;;5006208;28;20041;-89
2022/04/18 11:01:10;;;;;;;2.75;1.58;;;;;;;;;;4997452;28;20050;-88
2022/04/18 11:03:41;;;;;;;3.15;1.83;;;;;;;;;;5004580;28;20135;-88
2022/04/18 11:06:09;;;;;;;2.75;1.33;;;;;;;;;;5003870;28;20157;-88
2022/04/18 11:08:36;;;;;;;3.08;1.58;;;;;;;;;;5001836;28;20050;-89
2022/04/18 11:11:04;;;;;;;3.78;2.05;;;;;;;;;;5006241;28;20049;-88
2022/04/18 11:13:31;;;;;;;3.17;1.70;;;;;;;;;;5001834;28;20053;-88
2022/04/18 11:16:04;;;;;;;3.40;1.77;;;;;;;;;;5001122;28;20120;-88
2022/04/18 11:18:32;;;;;;;3.78;1.77;;;;;;;;;;5006655;28;20099;-89
2022/04/18 11:21:00;;;;;;;4.47;1.95;;;;;;;;;;4997508;28;20047;-88
2022/04/18 11:23:27;;;;;;;3.08;1.85;;;;;;;;;;5003467;28;20049;-88
2022/04/18 11:25:56;;;;;;;5.15;2.45;;;;;;;;;;4995705;28;20042;-88
2022/04/18 11:28:23;;;;;;;3.90;2.33;;;;;;;;;;5003646;28;20100;-88
2022/04/18 11:30:50;;;;;;;2.75;1.75;;;;;;;;;;5005830;28;20050;-88
2022/04/18 11:33:17;;;;;;;3.15;1.90;;;;;;;;;;4998039;28;20050;-88
2022/04/18 11:35:44;;;;;;;6.20;2.80;;;;;;;;;;5002281;28;20736;-88
2022/04/18 11:38:13;;;;;;;2.15;1.35;;;;;;;;;;5001910;28;20042;-88
2022/04/18 11:40:40;;;;;;;2.92;1.55;;;;;;;;;;4998707;28;20142;-88
2022/04/18 11:43:12;;;;;;;4.88;2.10;;;;;;;;;;5002647;28;20053;-88
2022/04/18 11:45:38;;;;;;;2.70;1.63;;;;;;;;;;4996545;28;20133;-89
2022/04/18 11:48:11;;;;;;;3.22;1.33;;;;;;;;;;4999951;28;20058;-88
2022/04/18 11:50:42;;;;;;;5.20;2.78;;;;;;;;;;5000042;28;20101;-88
2022/04/18 11:53:11;;;;;;;1.95;1.20;;;;;;;;;;4997091;28;20065;-89
2022/04/18 11:55:43;;;;;;;3.58;1.63;;;;;;;;;;4994442;28;20053;-87
2022/04/18 12:39:04;;;;;;;2.28;1.23;;;;;;;;;;5013349;28;20767;-90
2022/04/18 12:41:34;;;;;;;3.35;1.45;;;;;;;;;;5019493;28;20057;-89
2022/04/18 12:44:02;;;;;;;2.90;1.13;;;;;;;;;;5005768;28;20100;-89
2022/04/18 12:46:35;;;;;;;4.75;2.30;;;;;;;;;;5018054;28;20722;-90
2022/04/18 12:49:04;;;;;;;2.92;1.45;;;;;;;;;;5017752;28;20049;-89
2022/04/18 12:51:32;;;;;;;2.85;1.42;;;;;;;;;;5023285;28;20053;-89
2022/04/18 12:54:00;;;;;;;2.72;1.83;;;;;;;;;;5022853;28;20057;-89
2022/04/18 12:56:29;;;;;;;2.80;1.60;;;;;;;;;;5019738;28;20052;-88
2022/04/18 12:59:04;;;;;;;2.72;1.30;;;;;;;;;;5027075;28;20041;-89
2022/04/18 13:01:32;;;;;;;2.73;1.30;;;;;;;;;;5026210;28;20061;-89
2022/04/18 13:04:00;;;;;;;4.22;1.38;;;;;;;;;;5038538;28;20053;-89
2022/04/18 13:06:28;;;;;;;3.22;1.40;;;;;;;;;;5033303;28;20056;-88
2022/04/18 13:08:57;;;;;;;3.00;1.50;;;;;;;;;;5022030;28;20053;-88
2022/04/18 13:11:37;;;;;;;2.70;1.58;;;;;;;;;;5034992;28;20091;-88
2022/04/18 13:14:04;;;;;;;2.70;1.50;;;;;;;;;;5027023;28;20053;-88
2022/04/18 13:16:31;;;;;;;2.63;1.40;;;;;;;;;;5025734;28;20049;-88
2022/04/18 13:18:59;;;;;;;2.55;1.42;;;;;;;;;;5029015;28;20054;-88
2022/04/18 13:21:25;;;;;;;3.30;1.60;;;;;;;;;;5027623;28;20041;-88
2022/04/18 13:23:52;;;;;;;2.08;1.08;;;;;;;;;;5022401;28;20060;-89
2022/04/18 13:26:19;;;;;;;4.38;1.55;;;;;;;;;;5025917;28;20079;-89
2022/04/18 13:28:47;;;;;;;3.08;1.70;;;;;;;;;;5023592;28;20056;-89
2022/04/18 13:31:14;;;;;;;3.10;1.60;;;;;;;;;;5025244;28;20670;-89
2022/04/18 13:33:40;;;;;;;4.20;2.15;;;;;;;;;;5023122;28;20421;-89
2022/04/18 13:38:51;;;;;;;2.88;1.30;;;;;;;;;;5046441;28;20051;-89
2022/04/18 13:41:17;;;;;;;2.35;1.15;;;;;;;;;;5065138;28;20416;-89
2022/04/18 13:43:44;;;;;;;3.22;1.20;;;;;;;;;;5063081;28;20053;-89
2022/04/18 13:46:13;;;;;;;2.38;1.23;;;;;;;;;;5067992;28;20131;-89
2022/04/18 13:48:40;;;;;;;2.15;1.10;;;;;;;;;;5062762;28;20436;-88
2022/04/18 13:51:06;;;;;;;3.10;1.52;;;;;;;;;;5057870;28;20068;-89
2022/04/18 13:53:34;;;;;;;2.92;1.55;;;;;;;;;;5061238;28;20055;-89
2022/04/18 13:56:00;;;;;;;1.65;1.02;;;;;;;;;;5060798;28;20052;-88
2022/04/18 13:58:27;;;;;;;4.35;1.50;;;;;;;;;;5062251;28;20045;-89
2022/04/18 14:00:53;;;;;;;2.53;1.40;;;;;;;;;;5066946;28;20653;-89
2022/04/18 14:03:22;;;;;;;2.15;1.20;;;;;;;;;;5058949;28;20060;-89
2022/04/18 14:05:49;;;;;;;4.68;1.38;;;;;;;;;;5070235;28;20048;-88
2022/04/18 14:08:16;;;;;;;2.40;1.40;;;;;;;;;;5069645;28;20045;-89
2022/04/18 14:10:43;;;;;;;3.40;1.55;;;;;;;;;;5054095;28;20067;-89
2022/04/18 14:13:09;;;;;;;3.03;1.70;;;;;;;;;;5059762;28;20055;-88
2022/04/18 14:21:07;;;;;;;2.60;1.70;;;;;;;;;;5064126;28;20063;-89
2022/04/18 14:23:33;;;;;;;3.00;1.60;;;;;;;;;;5057620;28;20044;-88
2022/04/18 14:26:00;;;;;;;2.47;1.40;;;;;;;;;;5063997;28;20056;-88
2022/04/18 14:28:27;;;;;;;3.15;1.40;;;;;;;;;;5048761;28;20512;-88
2022/04/18 14:30:53;;;;;;;2.20;1.48;;;;;;;;;;5050354;28;20056;-88
2022/04/18 14:33:22;;;;;;;2.53;1.30;;;;;;;;;;5058329;28;20060;-89
2022/04/18 14:35:48;;;;;;;4.85;1.70;;;;;;;;;;5066077;28;20048;-89
2022/04/18 14:38:15;;;;;;;1.77;1.30;;;;;;;;;;5064320;28;20060;-88
2022/04/18 14:40:45;;;;;;;2.78;1.45;;;;;;;;;;5062288;28;20045;-89
2022/04/18 14:43:15;;;;;;;2.85;1.40;;;;;;;;;;5062378;28;20049;-90
2022/04/18 14:45:43;;;;;;;3.33;1.38;;;;;;;;;;5055485;28;20663;-89
2022/04/18 14:48:12;;;;;;;2.53;1.40;;;;;;;;;;5058510;28;20060;-89
2022/04/18 14:50:44;;;;;;;3.53;1.38;;;;;;;;;;5065400;28;20048;-88
2022/04/18 14:53:14;;;;;;;2.40;1.48;;;;;;;;;;5057510;28;20464;-89
2022/04/18 14:55:40;;;;;;;4.18;1.60;;;;;;;;;;5058215;28;20543;-90
2022/04/18 14:58:08;;;;;;;3.17;1.30;;;;;;;;;;5070732;28;20048;-88
2022/04/18 15:00:35;;;;;;;5.55;1.70;;;;;;;;;;5067051;28;20131;-89
2022/04/18 15:03:03;;;;;;;3.00;1.40;;;;;;;;;;5071612;28;20049;-89
2022/04/18 15:05:29;;;;;;;2.28;1.20;;;;;;;;;;5061126;28;20059;-89
2022/04/18 15:07:58;;;;;;;2.70;1.80;;;;;;;;;;5060525;28;20051;-90
2022/04/18 15:10:26;;;;;;;4.28;1.27;;;;;;;;;;5061247;28;20044;-90
2022/04/18 15:12:53;;;;;;;2.88;1.50;;;;;;;;;;5055104;28;20059;-89
2022/04/18 15:15:22;;;;;;;3.58;1.67;;;;;;;;;;5064788;28;20048;-89
2022/04/18 15:17:49;;;;;;;2.42;1.45;;;;;;;;;;5051258;28;20056;-89
2022/04/18 15:20:15;;;;;;;2.70;1.42;;;;;;;;;;5063700;28;20040;-89
2022/04/18 15:22:42;;;;;;;3.45;1.50;;;;;;;;;;5062266;28;20049;-89
2022/04/18 15:25:10;;;;;;;1.95;1.42;;;;;;;;;;5062766;28;20045;-89
2022/04/18 15:27:37;;;;;;;6.57;1.50;;;;;;;;;;5059288;28;20493;-90
2022/04/18 15:32:47;;;;;;;2.85;1.25;;;;;;;;;;5063373;28;20534;-89
2022/04/18 15:35:14;;;;;;;2.33;1.77;;;;;;;;;;5057890;28;20044;-90
2022/04/18 15:37:40;;;;;;;2.45;1.70;;;;;;;;;;5068546;28;20049;-89
2022/04/18 15:40:10;;;;;;;4.03;1.40;;;;;;;;;;5063645;28;20040;-89
2022/04/18 15:42:38;;;;;;;2.85;1.63;;;;;;;;;;5056136;28;20056;-90
2022/04/18 15:45:05;;;;;;;3.10;2.40;;;;;;;;;;5062647;28;20532;-90
2022/04/18 15:47:32;;;;;;;4.10;2.30;;;;;;;;;;5056742;28;20580;-89
2022/04/18 15:49:58;;;;;;;2.47;1.70;;;;;;;;;;5056580;28;20049;-88
2022/04/18 15:52:26;;;;;;;3.97;1.40;;;;;;;;;;5052854;28;20068;-88
2022/04/18 15:54:52;;;;;;;2.63;1.30;;;;;;;;;;5065468;28;20496;-88